Time;durP1;ratioP1;P1;durP2;ratioP2;P2;SDS_P1;SDS_P2;PMS_P1;PMS_P2;Temp;Humidity;BMP_temperature;BMP_pressure;BME280_temperature;BME280_humidity;BME280_pressure;Samples;Min_cycle;Max_cycle;Signal;HPM_P1;HPM_P2
2022/05/03 00:02:20;;;;;;;7.30;4.33;;;7.60;81.30;;;;;;5014105;28;20427;-77
2022/05/03 00:05:02;;;;;;;8.97;8.10;;;7.60;81.50;;;;;;5012849;28;20483;-77
2022/05/03 00:07:39;;;;;;;7.97;7.17;;;7.60;81.70;;;;;;5012678;28;20440;-77
2022/05/03 00:10:10;;;;;;;9.67;8.20;;;7.60;81.80;;;;;;5013784;28;20506;-77
2022/05/03 00:12:42;;;;;;;8.87;8.00;;;7.50;82.50;;;;;;5012117;28;21056;-76
2022/05/03 00:15:12;;;;;;;8.80;7.90;;;7.50;82.00;;;;;;5006902;28;20973;-76
2022/05/03 00:17:43;;;;;;;7.53;6.47;;;7.40;82.10;;;;;;4978526;28;20484;-76
2022/05/03 00:20:12;;;;;;;8.00;5.87;;;7.40;82.30;;;;;;4986914;28;20530;-75
2022/05/03 00:22:41;;;;;;;8.27;6.00;;;7.40;82.50;;;;;;4996327;28;20511;-75
2022/05/03 00:25:11;;;;;;;7.27;5.37;;;7.40;82.70;;;;;;5017330;28;20444;-75
2022/05/03 00:27:40;;;;;;;8.40;7.60;;;7.30;82.80;;;;;;5002147;28;20496;-75
2022/05/03 00:30:08;;;;;;;7.53;5.23;;;7.30;82.90;;;;;;5003085;28;20507;-75
2022/05/03 00:32:39;;;;;;;9.33;8.53;;;7.30;83.10;;;;;;5012830;28;20481;-76
2022/05/03 00:35:09;;;;;;;8.73;7.73;;;7.30;83.20;;;;;;5011357;28;20498;-76
2022/05/03 00:37:37;;;;;;;7.67;6.67;;;7.20;83.10;;;;;;5000773;28;20459;-76
2022/05/03 00:40:06;;;;;;;8.27;7.17;;;7.20;83.20;;;;;;5004400;28;20523;-76
2022/05/03 00:42:46;;;;;;;10.07;9.17;;;7.20;83.20;;;;;;5012242;28;20488;-76
2022/05/03 00:45:20;;;;;;;10.27;9.37;;;7.20;83.40;;;;;;5010991;28;21030;-76
2022/05/03 00:47:53;;;;;;;21.70;20.53;;;7.20;83.50;;;;;;5002623;28;20459;-76
2022/05/03 00:50:33;;;;;;;16.57;15.37;;;7.10;83.50;;;;;;4991307;28;20576;-75
2022/05/03 00:53:08;;;;;;;8.07;7.27;;;7.10;83.60;;;;;;4991275;28;20502;-76
2022/05/03 00:56:08;;;;;;;16.43;15.33;;;7.00;83.60;;;;;;4990402;28;20487;-76
2022/05/03 00:58:56;;;;;;;19.60;18.40;;;7.00;83.70;;;;;;4992465;28;20474;-76
2022/05/03 01:01:31;;;;;;;13.47;12.53;;;7.00;83.80;;;;;;4992724;28;20527;-76
2022/05/03 01:04:12;;;;;;;20.43;19.23;;;6.90;83.70;;;;;;4991189;28;21046;-76
2022/05/03 01:06:54;;;;;;;22.10;20.80;;;6.90;84.50;;;;;;4990975;28;20476;-76
2022/05/03 01:09:29;;;;;;;17.90;16.70;;;6.90;83.90;;;;;;4992373;28;20529;-76
2022/05/03 01:12:24;;;;;;;27.77;26.37;;;6.80;83.80;;;;;;4990997;28;20535;-76
2022/05/03 01:15:19;;;;;;;24.20;22.97;;;6.80;83.80;;;;;;4994130;28;20501;-75
2022/05/03 01:18:01;;;;;;;23.73;22.47;;;6.80;83.90;;;;;;4991487;28;21039;-75
2022/05/03 01:20:31;;;;;;;21.43;20.23;;;6.80;83.90;;;;;;5008296;28;20485;-75
2022/05/03 01:23:38;;;;;;;21.20;19.90;;;6.70;83.80;;;;;;5011683;28;20415;-75
2022/05/03 01:26:40;;;;;;;34.03;32.50;;;6.70;83.90;;;;;;4971290;28;20509;-75
2022/05/03 01:29:24;;;;;;;24.97;23.70;;;6.70;83.80;;;;;;4972655;28;20464;-75
2022/05/03 01:31:57;;;;;;;32.43;30.77;;;6.60;83.80;;;;;;4971230;28;20461;-75
2022/05/03 01:34:27;;;;;;;20.50;19.37;;;6.60;83.80;;;;;;4972397;28;20484;-75
2022/05/03 01:37:14;;;;;;;21.43;20.23;;;6.60;84.00;;;;;;4972756;28;20576;-75
2022/05/03 01:39:58;;;;;;;28.30;26.90;;;6.60;84.00;;;;;;4971324;28;20836;-75
2022/05/03 01:42:34;;;;;;;31.00;29.53;;;6.50;84.00;;;;;;4972641;28;20993;-75
2022/05/03 01:45:07;;;;;;;23.13;21.90;;;6.50;84.00;;;;;;4971162;28;20955;-75
2022/05/03 01:47:45;;;;;;;31.37;29.93;;;6.50;84.10;;;;;;4972601;28;20462;-75
2022/05/03 01:50:27;;;;;;;26.90;25.50;;;6.50;84.10;;;;;;4970980;28;20478;-76
2022/05/03 01:53:15;;;;;;;18.40;17.20;;;6.40;84.10;;;;;;4985251;28;20473;-75
2022/05/03 01:56:17;;;;;;;21.03;19.77;;;6.40;84.20;;;;;;5001866;28;21045;-75
2022/05/03 01:59:11;;;;;;;31.20;29.70;;;6.40;84.30;;;;;;4993891;28;20475;-76
2022/05/03 02:01:53;;;;;;;26.00;24.70;;;6.40;84.30;;;;;;4972389;28;20532;-75
2022/05/03 02:04:59;;;;;;;22.17;20.87;;;6.30;84.20;;;;;;4970931;28;20951;-75
2022/05/03 02:07:46;;;;;;;24.10;22.80;;;6.30;84.40;;;;;;4992996;28;20507;-75
2022/05/03 02:10:22;;;;;;;26.97;25.53;;;6.30;84.40;;;;;;5009689;28;21024;-75
2022/05/03 02:12:56;;;;;;;25.83;24.50;;;6.20;84.40;;;;;;5011442;28;20421;-75
2022/05/03 02:15:36;;;;;;;25.70;24.37;;;6.20;84.60;;;;;;5006051;28;20455;-76
2022/05/03 02:18:11;;;;;;;20.07;18.77;;;6.20;84.60;;;;;;4991856;28;20445;-76
2022/05/03 02:21:07;;;;;;;26.17;24.83;;;6.20;84.80;;;;;;5004836;28;20470;-76
2022/05/03 02:23:48;;;;;;;31.17;29.67;;;6.10;84.80;;;;;;4991875;28;20498;-75
2022/05/03 02:26:39;;;;;;;32.43;30.93;;;6.10;84.90;;;;;;4990020;28;20442;-75
2022/05/03 02:29:11;;;;;;;31.13;29.60;;;6.10;84.90;;;;;;4990634;28;21025;-76
2022/05/03 02:31:47;;;;;;;30.73;29.03;;;6.10;85.00;;;;;;4993424;28;20497;-75
2022/05/03 02:34:29;;;;;;;32.57;30.80;;;6.00;85.00;;;;;;4996315;28;20484;-75
2022/05/03 02:37:04;;;;;;;34.07;32.40;;;6.00;85.30;;;;;;5012941;28;20850;-75
2022/05/03 02:39:35;;;;;;;32.37;30.77;;;6.00;85.40;;;;;;5013024;28;20463;-76
2022/05/03 02:42:03;;;;;;;19.63;18.37;;;6.00;85.60;;;;;;5012864;28;20610;-75
2022/05/03 02:44:35;;;;;;;22.20;20.73;;;6.00;85.70;;;;;;5012832;28;20824;-75
2022/05/03 02:47:05;;;;;;;36.13;34.23;;;5.90;85.80;;;;;;5004386;28;20484;-75
2022/05/03 02:49:55;;;;;;;59.27;56.97;;;5.90;85.80;;;;;;4993911;28;20489;-75
2022/05/03 02:52:29;;;;;;;51.33;49.17;;;5.90;85.80;;;;;;5012715;28;20439;-76
2022/05/03 02:55:06;;;;;;;37.70;35.90;;;5.90;85.90;;;;;;4994986;28;20502;-75
2022/05/03 02:57:46;;;;;;;47.90;45.90;;;5.90;86.00;;;;;;4993046;28;20441;-76
2022/05/03 03:03:12;;;;;;;60.47;58.00;;;5.90;86.00;;;;;;5004290;28;20996;-76
2022/05/03 03:05:49;;;;;;;45.87;43.83;;;5.80;86.00;;;;;;5007967;28;20478;-75
2022/05/03 03:08:20;;;;;;;41.73;39.77;;;5.80;86.00;;;;;;4992998;28;20532;-75
2022/05/03 03:10:52;;;;;;;44.93;42.93;;;5.80;86.10;;;;;;5012376;28;21002;-75
2022/05/03 03:13:34;;;;;;;42.23;40.23;;;5.80;86.20;;;;;;5013708;28;20817;-75
2022/05/03 03:16:03;;;;;;;44.80;42.73;;;5.70;86.10;;;;;;5007387;28;20439;-75
2022/05/03 03:18:34;;;;;;;57.03;54.53;;;5.70;86.20;;;;;;4992729;28;20448;-76
2022/05/03 03:21:06;;;;;;;52.60;50.33;;;5.70;86.20;;;;;;5002540;28;20451;-75
2022/05/03 03:23:37;;;;;;;39.97;37.93;;;5.70;86.30;;;;;;4993898;28;20428;-76
2022/05/03 03:26:06;;;;;;;37.93;36.13;;;5.70;86.30;;;;;;4996510;28;20567;-75
2022/05/03 03:28:37;;;;;;;39.73;37.83;;;5.70;86.40;;;;;;4974826;28;20480;-75
2022/05/03 03:31:07;;;;;;;37.60;35.83;;;5.60;86.40;;;;;;4999876;28;20832;-75
2022/05/03 03:33:39;;;;;;;38.20;36.30;;;5.60;86.40;;;;;;5012615;28;20876;-75
2022/05/03 03:36:11;;;;;;;36.73;34.80;;;5.60;86.50;;;;;;5013984;28;20890;-75
2022/05/03 03:38:44;;;;;;;45.87;43.80;;;5.60;86.60;;;;;;5011856;28;20829;-75
2022/05/03 03:41:13;;;;;;;35.77;33.87;;;5.60;86.60;;;;;;5011587;28;20538;-75
2022/05/03 03:43:47;;;;;;;34.57;32.43;;;5.50;86.60;;;;;;5013098;28;20421;-75
2022/05/03 03:46:15;;;;;;;37.03;35.07;;;5.50;86.70;;;;;;5011885;28;20476;-75
2022/05/03 03:48:44;;;;;;;23.13;21.53;;;5.50;86.70;;;;;;5013139;28;20459;-75
2022/05/03 03:51:15;;;;;;;26.67;25.07;;;5.50;86.80;;;;;;4998522;28;20452;-76
2022/05/03 03:53:43;;;;;;;40.60;38.60;;;5.50;86.80;;;;;;5009217;28;20492;-75
2022/05/03 03:56:12;;;;;;;41.73;39.63;;;5.50;86.90;;;;;;5013190;28;20887;-75
2022/05/03 03:58:40;;;;;;;40.83;38.87;;;5.50;87.00;;;;;;5012756;28;20984;-76
2022/05/03 04:01:09;;;;;;;45.43;43.27;;;5.50;87.00;;;;;;5012856;28;20440;-75
2022/05/03 04:03:39;;;;;;;34.63;32.73;;;5.40;87.10;;;;;;5011582;28;20452;-76
2022/05/03 04:06:07;;;;;;;37.30;35.27;;;5.40;87.20;;;;;;4997125;28;20436;-75
2022/05/03 04:08:36;;;;;;;62.33;59.70;;;5.40;87.30;;;;;;4991818;28;20457;-75
2022/05/03 04:11:14;;;;;;;62.27;59.70;;;5.40;87.40;;;;;;4991962;28;20444;-75
2022/05/03 04:13:43;;;;;;;34.43;32.43;;;5.40;87.40;;;;;;5008647;28;20455;-75
2022/05/03 04:16:14;;;;;;;61.67;59.00;;;5.40;87.50;;;;;;5004244;28;20553;-75
2022/05/03 04:18:45;;;;;;;51.67;49.23;;;5.40;87.60;;;;;;5007088;28;20528;-75
2022/05/03 04:21:14;;;;;;;53.43;50.97;;;5.40;87.70;;;;;;5011452;28;20861;-75
2022/05/03 04:23:45;;;;;;;56.23;53.57;;;5.40;88.50;;;;;;5011422;28;20485;-75
2022/05/03 04:26:13;;;;;;;46.73;44.37;;;5.40;88.10;;;;;;5010006;28;20539;-75
2022/05/03 04:28:42;;;;;;;44.87;42.37;;;5.40;88.30;;;;;;5004314;28;20464;-75
2022/05/03 04:31:10;;;;;;;43.37;41.13;;;5.40;88.50;;;;;;5011203;28;20464;-75
2022/05/03 04:33:38;;;;;;;39.03;36.80;;;5.50;88.80;;;;;;5012293;28;20486;-75
2022/05/03 04:36:07;;;;;;;31.67;29.47;;;5.50;89.00;;;;;;4986010;28;20473;-75
2022/05/03 04:38:35;;;;;;;44.57;42.00;;;5.50;89.30;;;;;;4993252;28;20482;-75
2022/05/03 04:41:04;;;;;;;75.33;71.87;;;5.50;89.40;;;;;;4992645;28;20456;-76
2022/05/03 04:43:32;;;;;;;76.53;73.13;;;5.50;89.60;;;;;;4996169;28;20455;-76
2022/05/03 04:46:01;;;;;;;56.50;53.73;;;5.50;89.70;;;;;;5012305;28;20455;-75
2022/05/03 04:48:29;;;;;;;108.03;103.63;;;5.50;89.80;;;;;;5012098;28;20877;-75
2022/05/03 04:50:57;;;;;;;113.33;108.97;;;5.50;90.00;;;;;;4997152;28;20992;-75
2022/05/03 04:53:25;;;;;;;103.90;99.70;;;5.60;90.10;;;;;;4992551;28;20485;-75
2022/05/03 04:55:53;;;;;;;84.60;81.03;;;5.60;90.20;;;;;;5010651;28;20476;-75
2022/05/03 04:58:23;;;;;;;114.43;109.97;;;5.60;90.60;;;;;;5011965;28;20484;-75
2022/05/03 05:00:51;;;;;;;90.10;86.20;;;5.70;90.50;;;;;;4997635;28;20476;-75
2022/05/03 05:03:19;;;;;;;80.13;76.73;;;5.70;90.50;;;;;;5011895;28;20453;-76
2022/05/03 05:05:47;;;;;;;75.03;71.60;;;5.70;90.60;;;;;;4998645;28;20463;-75
2022/05/03 05:08:16;;;;;;;69.23;65.90;;;5.80;90.70;;;;;;4991007;28;20451;-75
2022/05/03 05:10:44;;;;;;;80.23;76.53;;;5.80;90.90;;;;;;4990850;28;20469;-75
2022/05/03 05:13:12;;;;;;;87.20;83.40;;;5.80;90.90;;;;;;5006447;28;20538;-75
2022/05/03 05:15:41;;;;;;;74.83;71.53;;;5.90;91.10;;;;;;5010479;28;20470;-75
2022/05/03 05:18:10;;;;;;;65.57;62.50;;;5.90;91.20;;;;;;5010715;28;20478;-75
2022/05/03 05:20:38;;;;;;;71.57;68.07;;;6.00;91.30;;;;;;5011556;28;20495;-75
2022/05/03 05:23:06;;;;;;;57.90;54.83;;;6.00;91.40;;;;;;5010537;28;20541;-75
2022/05/03 05:25:47;;;;;;;61.70;58.73;;;6.10;91.60;;;;;;5002014;28;20450;-76
2022/05/03 05:28:16;;;;;;;59.83;56.97;;;6.20;91.70;;;;;;4992170;28;20470;-75
2022/05/03 05:30:46;;;;;;;35.93;33.73;;;6.30;91.90;;;;;;4990586;28;20536;-75
2022/05/03 05:33:15;;;;;;;33.37;31.23;;;6.40;92.10;;;;;;5008134;28;20470;-75
2022/05/03 05:35:43;;;;;;;14.60;13.10;;;6.40;92.30;;;;;;5010218;28;20467;-75
2022/05/03 05:38:14;;;;;;;30.43;28.37;;;6.50;92.60;;;;;;5010119;28;20812;-75
2022/05/03 05:40:42;;;;;;;35.37;33.17;;;6.60;92.70;;;;;;5010676;28;20556;-75
2022/05/03 05:43:11;;;;;;;31.20;29.03;;;6.70;92.90;;;;;;5008987;28;20861;-75
2022/05/03 05:45:40;;;;;;;33.90;31.87;;;6.80;93.10;;;;;;5007257;28;20862;-76
2022/05/03 05:48:10;;;;;;;19.40;17.50;;;6.90;93.30;;;;;;4992237;28;20550;-75
2022/05/03 05:50:38;;;;;;;15.57;13.90;;;7.00;93.50;;;;;;4990503;28;20466;-75
2022/05/03 05:55:52;;;;;;;16.27;14.63;;;7.20;93.90;;;;;;4990335;28;20544;-76
2022/05/03 05:58:20;;;;;;;15.83;13.97;;;7.30;94.10;;;;;;4991787;28;20448;-75
2022/05/03 06:00:51;;;;;;;16.17;13.90;;;7.40;94.30;;;;;;4990394;28;20455;-76
2022/05/03 06:03:22;;;;;;;15.70;14.10;;;7.50;94.50;;;;;;4991321;28;20467;-75
2022/05/03 06:05:51;;;;;;;15.93;14.07;;;7.60;94.70;;;;;;5004573;28;20457;-75
2022/05/03 06:08:19;;;;;;;16.60;14.80;;;7.70;94.90;;;;;;5008635;28;20957;-76
2022/05/03 06:10:49;;;;;;;16.67;14.97;;;7.80;95.00;;;;;;4991653;28;20472;-75
2022/05/03 06:13:17;;;;;;;20.50;14.60;;;7.90;95.20;;;;;;4990146;28;20561;-76
2022/05/03 06:15:45;;;;;;;16.63;14.93;;;8.00;95.30;;;;;;4990125;28;20472;-76
2022/05/03 06:18:14;;;;;;;16.77;15.07;;;8.10;95.50;;;;;;4991805;28;20454;-76
2022/05/03 06:20:43;;;;;;;18.37;16.47;;;8.20;95.60;;;;;;5011006;28;20519;-75
2022/05/03 06:23:15;;;;;;;18.27;15.43;;;8.40;95.80;;;;;;5010995;28;20443;-75
2022/05/03 06:25:43;;;;;;;23.50;19.13;;;8.50;96.00;;;;;;5008243;28;20452;-76
2022/05/03 06:28:12;;;;;;;22.40;20.00;;;8.60;96.20;;;;;;5009461;28;20451;-76
2022/05/03 06:30:41;;;;;;;24.40;21.80;;;8.70;96.60;;;;;;5010906;28;20480;-76
2022/05/03 06:33:10;;;;;;;25.63;22.93;;;8.80;96.60;;;;;;5009551;28;20463;-77
2022/05/03 06:35:38;;;;;;;27.80;25.00;;;9.00;96.70;;;;;;4999383;28;20818;-77
2022/05/03 06:38:07;;;;;;;25.87;23.27;;;9.10;96.90;;;;;;4991235;28;20477;-77
2022/05/03 06:40:35;;;;;;;27.43;24.60;;;9.30;97.10;;;;;;4989746;28;20483;-77
2022/05/03 06:43:04;;;;;;;30.67;27.60;;;9.50;97.30;;;;;;4990963;28;20456;-77
2022/05/03 06:45:32;;;;;;;30.23;27.10;;;9.70;97.50;;;;;;4989848;28;20954;-77
2022/05/03 06:48:00;;;;;;;30.30;27.20;;;9.90;97.60;;;;;;4989662;28;20796;-77
2022/05/03 06:50:30;;;;;;;29.87;26.73;;;10.00;97.10;;;;;;4997599;28;21004;-77
2022/05/03 06:52:58;;;;;;;31.10;27.93;;;10.20;97.30;;;;;;4999415;28;20452;-77
2022/05/03 06:55:28;;;;;;;31.23;28.00;;;10.30;97.40;;;;;;4989507;28;20508;-77
2022/05/03 06:57:56;;;;;;;29.83;26.63;;;10.40;97.40;;;;;;4990804;28;20452;-77
2022/05/03 07:00:24;;;;;;;29.77;26.67;;;10.40;97.40;;;;;;5007221;28;20467;-77
2022/05/03 07:02:52;;;;;;;26.70;23.50;;;10.40;97.40;;;;;;5010936;28;20979;-77
2022/05/03 07:05:21;;;;;;;28.87;25.83;;;10.40;97.60;;;;;;5011638;28;20929;-77
2022/05/03 07:07:49;;;;;;;30.27;25.60;;;10.50;97.70;;;;;;5011245;28;20436;-77
2022/05/03 07:10:17;;;;;;;29.67;26.33;;;10.60;97.90;;;;;;5010042;28;20479;-77
2022/05/03 07:12:47;;;;;;;29.40;26.30;;;10.60;97.90;;;;;;5009956;28;20444;-77
2022/05/03 07:15:15;;;;;;;31.27;25.60;;;10.70;98.00;;;;;;5010143;28;20452;-77
2022/05/03 07:23:16;;;;;;;28.23;24.90;;;11.00;98.50;;;;;;5002868;28;20926;-78
2022/05/03 07:25:45;;;;;;;30.70;26.27;;;11.10;98.50;;;;;;4997071;28;20475;-77
2022/05/03 07:28:15;;;;;;;27.37;23.70;;;11.20;98.60;;;;;;4994319;28;20453;-78
2022/05/03 07:30:43;;;;;;;29.30;25.83;;;11.30;98.70;;;;;;4994036;28;20468;-77
2022/05/03 07:33:12;;;;;;;28.57;25.47;;;11.40;98.70;;;;;;4994017;28;20824;-78
2022/05/03 07:35:40;;;;;;;30.70;24.43;;;11.40;98.70;;;;;;4995472;28;20421;-78
2022/05/03 07:38:08;;;;;;;29.77;24.10;;;11.50;98.90;;;;;;4974845;28;20541;-77
2022/05/03 07:40:36;;;;;;;29.23;24.33;;;11.50;98.80;;;;;;5004994;28;20545;-78
2022/05/03 07:43:05;;;;;;;30.13;25.43;;;11.60;98.80;;;;;;4995927;28;20570;-78
2022/05/03 07:45:35;;;;;;;30.27;25.63;;;11.60;98.80;;;;;;4994815;28;20502;-78
2022/05/03 07:48:04;;;;;;;26.90;22.17;;;11.60;98.90;;;;;;4995460;28;20992;-78
2022/05/03 07:50:33;;;;;;;31.50;25.80;;;11.60;98.90;;;;;;4994931;28;20468;-76
2022/05/03 07:53:01;;;;;;;31.73;25.70;;;11.70;99.00;;;;;;4992721;28;20448;-76
2022/05/03 07:55:29;;;;;;;29.73;24.50;;;11.70;99.00;;;;;;4994618;28;20510;-76
2022/05/03 07:57:57;;;;;;;29.77;25.07;;;11.70;99.10;;;;;;5008729;28;20984;-76
2022/05/03 08:00:27;;;;;;;31.47;24.80;;;11.80;99.10;;;;;;5009620;28;20478;-76
2022/05/03 08:02:56;;;;;;;31.60;25.50;;;11.80;99.10;;;;;;4992395;28;20456;-76
2022/05/03 08:05:25;;;;;;;29.23;23.50;;;11.80;99.20;;;;;;4992435;28;20852;-76
2022/05/03 08:07:53;;;;;;;30.50;23.83;;;11.90;99.20;;;;;;4993712;28;20946;-76
2022/05/03 08:10:21;;;;;;;30.00;24.47;;;11.90;99.20;;;;;;4992170;28;20481;-77
2022/05/03 08:12:51;;;;;;;29.13;23.70;;;11.80;99.20;;;;;;4994190;28;20449;-76
2022/05/03 08:15:20;;;;;;;31.43;24.93;;;11.80;99.20;;;;;;4992341;28;20501;-76
2022/05/03 08:17:49;;;;;;;30.30;25.63;;;11.70;99.30;;;;;;4992114;28;20473;-76
2022/05/03 08:20:19;;;;;;;29.47;25.27;;;11.70;99.40;;;;;;4999931;28;20837;-76
2022/05/03 08:22:47;;;;;;;27.67;24.13;;;11.80;99.70;;;;;;5011655;28;20463;-76
2022/05/03 08:25:15;;;;;;;32.20;26.57;;;11.70;99.50;;;;;;4995535;28;20453;-76
2022/05/03 08:27:44;;;;;;;28.53;24.20;;;11.70;99.50;;;;;;4990476;28;20510;-76
2022/05/03 08:30:13;;;;;;;30.40;25.53;;;11.70;99.60;;;;;;4993073;28;20468;-77
2022/05/03 08:32:41;;;;;;;31.77;26.33;;;11.70;99.70;;;;;;4991553;28;21049;-77
2022/05/03 08:35:09;;;;;;;25.87;23.07;;;11.70;99.70;;;;;;4991607;28;20445;-77
2022/05/03 08:43:10;;;;;;;24.33;20.03;;;11.70;99.90;;;;;;5012048;28;20442;-77
2022/05/03 08:45:40;;;;;;;24.20;20.17;;;11.70;99.90;;;;;;4992924;28;20445;-76
2022/05/03 08:48:09;;;;;;;26.70;21.50;;;11.70;99.90;;;;;;4991494;28;20812;-77
2022/05/03 08:50:38;;;;;;;27.30;21.70;;;11.70;99.90;;;;;;4991292;28;20469;-77
2022/05/03 08:53:08;;;;;;;26.10;20.10;;;11.60;99.90;;;;;;4990550;28;20510;-77
2022/05/03 08:55:38;;;;;;;33.30;21.17;;;11.70;99.90;;;;;;4997258;28;20457;-76
2022/05/03 08:58:06;;;;;;;24.73;18.80;;;11.60;99.90;;;;;;4991524;28;20512;-77
2022/05/03 09:00:36;;;;;;;33.43;22.93;;;11.60;99.90;;;;;;4993853;28;20559;-77
2022/05/03 09:03:04;;;;;;;29.67;19.60;;;11.70;99.90;;;;;;5010365;28;21045;-78
2022/05/03 09:05:32;;;;;;;27.63;20.10;;;11.80;99.90;;;;;;5006630;28;20502;-77
2022/05/03 09:08:02;;;;;;;29.23;20.57;;;11.80;99.90;;;;;;5010732;28;20452;-77
2022/05/03 09:10:33;;;;;;;27.87;19.17;;;11.90;99.90;;;;;;5010912;28;20460;-77
2022/05/03 09:13:22;;;;;;;22.07;16.67;;;11.90;99.90;;;;;;4994544;28;20457;-77
2022/05/03 09:15:52;;;;;;;18.50;13.33;;;12.00;99.90;;;;;;5002618;28;20447;-77
2022/05/03 09:18:22;;;;;;;20.70;13.13;;;12.00;99.90;;;;;;5010768;28;20559;-77
2022/05/03 09:23:48;;;;;;;24.43;13.37;;;12.10;99.90;;;;;;4973479;28;20462;-77
2022/05/03 09:26:20;;;;;;;20.33;12.47;;;12.20;99.90;;;;;;4999299;28;20460;-77
2022/05/03 09:28:50;;;;;;;20.43;13.97;;;12.30;99.90;;;;;;5011189;28;20470;-77
2022/05/03 09:31:30;;;;;;;18.10;12.43;;;12.40;99.90;;;;;;5005159;28;20555;-77
2022/05/03 09:34:00;;;;;;;18.07;11.97;;;12.40;99.90;;;;;;5001972;28;20805;-77
2022/05/03 09:36:40;;;;;;;16.30;10.33;;;12.50;99.80;;;;;;5010579;28;20452;-77
2022/05/03 09:39:30;;;;;;;15.20;8.13;;;12.60;99.70;;;;;;5010075;28;20464;-77
2022/05/03 09:42:14;;;;;;;17.27;7.80;;;12.70;99.70;;;;;;5011005;28;20452;-78
2022/05/03 09:44:52;;;;;;;15.13;8.50;;;12.70;99.60;;;;;;5012091;28;20838;-76
2022/05/03 09:47:22;;;;;;;14.50;8.27;;;12.70;99.50;;;;;;5010126;28;20456;-77
2022/05/03 09:49:51;;;;;;;14.33;7.30;;;12.70;99.40;;;;;;5007961;28;21080;-77
2022/05/03 09:52:27;;;;;;;13.30;7.80;;;12.70;99.30;;;;;;5010940;28;20984;-77
2022/05/03 09:54:59;;;;;;;16.57;8.10;;;12.80;99.30;;;;;;5002139;28;20490;-77
2022/05/03 09:57:31;;;;;;;17.70;7.80;;;12.80;99.10;;;;;;4993453;28;20469;-77
2022/05/03 10:00:01;;;;;;;11.90;6.70;;;12.80;99.00;;;;;;4991892;28;20468;-77
2022/05/03 10:02:32;;;;;;;13.80;6.60;;;12.80;98.90;;;;;;5001074;28;20459;-76
2022/05/03 10:05:00;;;;;;;17.90;7.40;;;12.80;98.90;;;;;;5007020;28;20942;-76
2022/05/03 10:07:30;;;;;;;16.07;7.63;;;12.80;98.70;;;;;;4990662;28;20460;-76
2022/05/03 10:09:58;;;;;;;17.40;8.77;;;12.80;98.60;;;;;;4990514;28;20473;-76
2022/05/03 10:12:27;;;;;;;15.17;7.77;;;12.70;98.50;;;;;;5007488;28;20457;-76
2022/05/03 10:14:56;;;;;;;17.70;8.20;;;12.70;98.40;;;;;;5003176;28;20853;-76
2022/05/03 10:20:40;;;;;;;17.77;6.83;;;12.70;98.30;;;;;;5002625;28;20498;-76
2022/05/03 10:23:22;;;;;;;14.13;7.60;;;12.80;98.40;;;;;;4991775;28;20425;-76
2022/05/03 10:25:51;;;;;;;13.50;6.37;;;12.90;98.30;;;;;;4990425;28;20996;-76
2022/05/03 10:28:20;;;;;;;19.43;7.30;;;12.90;98.20;;;;;;4992088;28;20451;-76
2022/05/03 10:31:22;;;;;;;15.60;7.63;;;13.00;98.20;;;;;;5006553;28;20464;-76
2022/05/03 10:33:50;;;;;;;21.77;9.13;;;13.00;97.90;;;;;;4920930;29;20920;-76
2022/05/03 10:36:41;;;;;;;13.30;6.70;;;13.00;98.00;;;;;;4994133;28;20984;-77
2022/05/03 10:39:22;;;;;;;16.30;6.37;;;13.10;97.60;;;;;;5008560;28;20508;-77
2022/05/03 10:41:56;;;;;;;13.30;6.77;;;13.10;97.60;;;;;;5010489;28;20443;-77
2022/05/03 10:44:42;;;;;;;17.77;7.30;;;13.10;97.50;;;;;;5009939;28;20448;-77
2022/05/03 10:47:13;;;;;;;24.77;7.40;;;13.10;97.30;;;;;;5011388;28;20527;-77
2022/05/03 10:50:26;;;;;;;16.23;5.73;;;13.20;97.40;;;;;;5011468;28;20525;-77
2022/05/03 10:53:17;;;;;;;12.17;5.90;;;13.20;97.30;;;;;;4990193;28;20430;-77
2022/05/03 10:56:09;;;;;;;16.90;7.43;;;13.30;97.20;;;;;;4990305;28;20454;-77
2022/05/03 10:58:39;;;;;;;13.87;7.00;;;13.40;97.10;;;;;;4973917;28;20480;-77
2022/05/03 11:01:17;;;;;;;14.13;5.80;;;13.40;97.00;;;;;;4982248;28;20454;-77
2022/05/03 11:04:12;;;;;;;14.30;5.70;;;13.50;96.90;;;;;;5013038;28;20944;-77
2022/05/03 11:06:42;;;;;;;14.97;6.10;;;13.60;96.70;;;;;;4990197;28;20456;-77
2022/05/03 11:09:11;;;;;;;15.03;6.07;;;13.60;96.60;;;;;;4975497;28;20553;-77
2022/05/03 11:12:04;;;;;;;14.80;5.90;;;13.70;96.60;;;;;;4974141;28;20458;-77
2022/05/03 11:14:55;;;;;;;14.00;6.23;;;13.80;96.50;;;;;;4974300;28;20453;-77
2022/05/03 11:17:24;;;;;;;15.97;7.20;;;13.80;96.40;;;;;;4973722;28;20496;-77
2022/05/03 11:20:01;;;;;;;18.33;6.77;;;13.90;96.30;;;;;;4973231;28;20519;-77
2022/05/03 11:22:31;;;;;;;13.80;7.37;;;13.90;96.00;;;;;;4980919;28;20465;-77
2022/05/03 11:25:08;;;;;;;14.33;5.93;;;13.90;96.00;;;;;;4989446;28;20454;-77
2022/05/03 11:27:37;;;;;;;14.43;6.30;;;13.90;95.90;;;;;;4974652;28;20428;-77
2022/05/03 11:30:08;;;;;;;12.30;6.77;;;13.90;95.80;;;;;;4973106;28;20809;-77
2022/05/03 11:32:38;;;;;;;11.00;5.60;;;14.00;95.80;;;;;;4973075;28;20454;-77
2022/05/03 11:35:11;;;;;;;14.97;6.27;;;14.00;95.50;;;;;;4973087;28;20450;-77
2022/05/03 11:37:52;;;;;;;14.50;5.50;;;14.00;95.40;;;;;;5020051;28;20520;-77
2022/05/03 11:40:23;;;;;;;12.70;5.80;;;14.00;95.40;;;;;;5013613;28;20516;-77
2022/05/03 11:42:51;;;;;;;13.20;5.30;;;14.10;95.40;;;;;;5010796;28;20452;-77
2022/05/03 11:45:20;;;;;;;13.80;5.60;;;14.10;95.30;;;;;;5010719;28;20440;-77
2022/05/03 11:47:50;;;;;;;12.87;6.20;;;14.10;95.10;;;;;;5009636;28;20714;-77
2022/05/03 11:56:01;;;;;;;13.40;5.50;;;14.10;94.90;;;;;;5011882;28;20514;-77
2022/05/03 11:58:31;;;;;;;12.50;5.90;;;14.10;94.80;;;;;;5011768;28;20490;-77
2022/05/03 12:00:59;;;;;;;10.87;5.00;;;14.20;94.70;;;;;;5013196;28;20432;-77
2022/05/03 12:03:28;;;;;;;12.73;6.33;;;14.20;94.60;;;;;;5005725;28;21495;-77
2022/05/03 12:06:03;;;;;;;12.70;5.37;;;14.30;94.60;;;;;;4993397;28;20445;-78
2022/05/03 12:08:34;;;;;;;14.57;5.63;;;14.40;94.40;;;;;;4995206;28;20433;-78
2022/05/03 12:11:02;;;;;;;12.93;5.83;;;14.40;94.30;;;;;;4992889;28;20415;-78
2022/05/03 12:13:34;;;;;;;10.63;4.60;;;14.40;94.10;;;;;;5007839;28;20550;-77
2022/05/03 12:16:15;;;;;;;12.27;5.23;;;14.40;94.10;;;;;;5010225;28;20423;-78
2022/05/03 12:18:48;;;;;;;17.90;6.13;;;14.50;94.10;;;;;;4995953;28;20467;-77
2022/05/03 12:21:21;;;;;;;13.37;7.27;;;14.60;94.10;;;;;;4991932;28;20441;-77
2022/05/03 12:23:50;;;;;;;10.73;5.30;;;14.60;93.90;;;;;;4992028;28;20466;-77
2022/05/03 12:26:21;;;;;;;14.37;6.43;;;14.60;93.70;;;;;;4994551;28;20452;-78
2022/05/03 12:28:51;;;;;;;13.03;6.77;;;14.70;93.70;;;;;;5012698;28;20535;-78
2022/05/03 12:31:21;;;;;;;15.03;5.77;;;14.80;93.60;;;;;;4993812;28;20510;-77
2022/05/03 12:33:53;;;;;;;13.63;5.57;;;14.80;93.50;;;;;;4994105;28;20972;-78
2022/05/03 12:36:36;;;;;;;13.97;5.10;;;14.80;93.40;;;;;;5026738;28;20447;-78
2022/05/03 12:39:13;;;;;;;14.47;4.90;;;14.80;93.20;;;;;;5015740;28;21012;-77
2022/05/03 12:41:56;;;;;;;12.13;5.90;;;14.80;93.10;;;;;;5014433;28;20478;-78
2022/05/03 12:44:25;;;;;;;11.17;4.70;;;14.80;93.10;;;;;;5016189;28;20402;-78
2022/05/03 12:47:02;;;;;;;10.20;4.83;;;14.80;92.90;;;;;;5014915;28;20415;-78
2022/05/03 12:49:31;;;;;;;14.90;6.70;;;14.70;92.90;;;;;;5014465;28;20503;-78
2022/05/03 12:52:01;;;;;;;12.50;5.63;;;14.80;93.00;;;;;;5011052;28;20430;-78
2022/05/03 12:54:33;;;;;;;14.03;4.30;;;14.80;92.90;;;;;;5011706;28;20441;-78
2022/05/03 12:59:49;;;;;;;14.40;6.77;;;15.00;92.80;;;;;;5014227;28;20973;-78
2022/05/03 13:02:18;;;;;;;11.93;5.07;;;15.00;92.70;;;;;;5016598;28;20432;-78
2022/05/03 13:04:46;;;;;;;10.30;4.03;;;15.00;92.70;;;;;;5014009;28;20477;-78
2022/05/03 13:07:17;;;;;;;13.13;4.67;;;15.00;92.60;;;;;;5013367;28;20536;-78
2022/05/03 13:09:45;;;;;;;14.97;5.13;;;15.00;92.60;;;;;;5008494;28;20977;-78
2022/05/03 13:12:14;;;;;;;10.10;4.70;;;15.10;92.70;;;;;;4998308;28;20964;-77
2022/05/03 13:14:44;;;;;;;11.73;4.10;;;15.10;92.60;;;;;;5010733;28;20448;-77
2022/05/03 13:17:13;;;;;;;12.03;5.97;;;15.20;92.60;;;;;;5006552;28;20444;-77
2022/05/03 13:19:42;;;;;;;12.40;4.97;;;15.20;92.50;;;;;;5014360;28;20488;-78
2022/05/03 13:22:10;;;;;;;11.57;4.90;;;15.20;92.30;;;;;;5000412;28;20451;-77
2022/05/03 13:24:40;;;;;;;12.20;4.40;;;15.20;92.30;;;;;;5004511;28;20548;-77
2022/05/03 13:27:08;;;;;;;10.43;4.50;;;15.20;92.10;;;;;;5018121;28;20452;-77
2022/05/03 13:29:37;;;;;;;15.73;5.30;;;15.20;92.00;;;;;;4990691;28;20990;-77
2022/05/03 13:32:07;;;;;;;10.77;4.27;;;15.10;92.00;;;;;;4986089;28;20445;-78
2022/05/03 13:34:35;;;;;;;11.30;4.43;;;15.20;92.10;;;;;;4988487;28;20460;-77
2022/05/03 13:42:37;;;;;;;14.03;4.63;;;15.30;91.90;;;;;;5011911;28;20779;-77